Latest Weather Observations for Mackay

IDQ60801

Issued at 6:32 pm EST Saturday 21 January 2017 (issued every 30 minutes, with the page automatically refreshed every 10 minutes)

About weather observations | Map of weather stations | Latest weather observations for QLD | Other Formats
Station Details ID: 033119 Name: MACKAY M.O Lat: -21.12 Lon: 149.22 Height: 30.26 m
Data from the previous 72 hours. | See also: Recent months at Mackay
Date/Time
EST
Temp
°C
App
Temp
°C
Dew
Point
°C
Rel
Hum
%
Delta-T
°C
Wind Press
QNH
hPa
Press
MSL
hPa
Rain since
9am
mm
Dir  Spd
km/h
Gust
km/h
Spd
kts
Gust
kts
21/06:30pm 28.2 31.2 22.7 72 3.7 N 11 17 6 9 1007.0 1006.8 0.0
21/06:00pm 29.3 32.5 23.0 69 4.3 N 11 20 6 11 1006.7 1006.5 0.0
21/05:30pm 30.0 33.0 22.7 65 5.0 NNE 11 22 6 12 1006.5 1006.3 0.0
21/05:00pm 30.5 33.2 23.4 66 4.9 NNE 15 24 8 13 1006.2 1006.0 0.0
21/04:30pm 30.9 33.9 23.3 64 5.2 NNE 13 20 7 11 1006.4 1006.2 0.0
21/04:00pm 31.6 35.1 24.2 65 5.2 NNE 13 20 7 11 1006.4 1006.2 0.0
21/03:30pm 31.9 35.3 24.0 63 5.5 NNE 13 22 7 12 1006.6 1006.4 0.0
21/03:00pm 32.3 36.0 24.6 64 5.4 NNE 13 22 7 12 1007.1 1006.9 0.0
21/02:30pm 32.6 36.6 24.4 62 5.8 NNE 11 19 6 10 1007.3 1007.1 0.0
21/02:00pm 32.8 36.4 24.3 61 6.0 NNE 13 22 7 12 1007.6 1007.4 0.0
21/01:30pm 33.0 37.0 25.0 63 5.7 NNE 13 20 7 11 1007.9 1007.7 0.0
21/01:00pm 32.4 35.5 24.2 62 5.7 NNE 15 24 8 13 1008.1 1007.9 0.0
21/12:30pm 32.5 34.7 22.6 56 6.8 N 15 28 8 15 1008.2 1008.0 0.0
21/12:00pm 31.9 34.2 22.0 55 6.7 N 13 22 7 12 1008.4 1008.2 0.0
21/11:30am 32.3 35.3 23.3 59 6.2 NNE 13 20 7 11 1008.7 1008.5 0.0
21/11:00am 31.7 32.8 21.2 53 7.1 N 17 26 9 14 1008.9 1008.7 0.0
21/10:30am 31.1 33.6 22.4 60 5.9 N 13 20 7 11 1009.4 1009.2 0.0
21/10:00am 30.9 34.1 23.0 62 5.4 N 11 24 6 13 1009.4 1009.2 0.0
21/09:30am 29.0 33.2 23.4 72 3.9 NNW 7 11 4 6 1009.6 1009.4 0.0
21/09:00am 28.8 32.9 23.2 71 3.8 SW 7 11 4 6 1009.8 1009.6 0.0
21/08:30am 27.8 31.7 23.6 78 2.9 WSW 9 15 5 8 1009.6 1009.4 0.0
21/08:00am 26.0 28.9 21.7 77 2.9 WSW 9 15 5 8 1009.6 1009.4 0.0
21/07:30am 24.6 26.9 21.3 82 2.2 WSW 11 17 6 9 1009.5 1009.3 0.0
21/07:00am 23.7 25.8 21.0 85 1.8 WSW 11 15 6 8 1009.4 1009.2 0.0
21/06:30am 22.5 24.7 21.1 92 0.9 WSW 11 13 6 7 1009.3 1009.1 0.0
21/06:00am 21.5 23.6 21.0 97 0.3 WSW 11 13 6 7 1009.1 1008.9 0.0
21/05:30am 21.5 23.5 20.7 95 0.5 SW 11 15 6 8 1008.8 1008.6 0.0
21/05:00am 21.9 23.6 20.9 94 0.7 WSW 13 15 7 8 1008.2 1008.0 0.0
21/04:30am 21.4 23.3 20.6 95 0.5 WSW 11 15 6 8 1008.0 1007.8 0.0
21/04:00am 21.8 23.8 20.8 94 0.7 WSW 11 17 6 9 1007.5 1007.3 0.0
21/03:30am 21.9 23.8 21.4 97 0.3 WSW 13 17 7 9 1007.6 1007.4 0.0
21/03:00am 22.0 24.3 21.3 96 0.5 WSW 11 13 6 7 1007.3 1007.1 0.0
21/02:30am 22.6 24.8 21.2 92 0.9 WSW 11 13 6 7 1007.5 1007.3 0.0
21/02:00am 22.8 25.3 21.1 90 1.1 WSW 9 11 5 6 1007.7 1007.5 0.0
21/01:30am 23.2 26.0 21.5 90 1.1 WSW 9 11 5 6 1007.9 1007.7 0.0
21/01:00am 23.7 27.4 20.8 84 1.9 W 2 7 1 4 1008.3 1008.1 0.0
21/12:30am 23.6 26.0 20.9 85 1.8 WSW 9 11 5 6 1008.7 1008.5 0.0
21/12:00am 24.6 27.4 20.5 78 2.7 N 6 7 3 4 1008.9 1008.7 0.0
 
Date/Time
EST
Temp
°C
App
Temp
°C
Dew
Point
°C
Rel
Hum
%
Delta-T
°C
Wind Press
QNH
hPa
Press
MSL
hPa
Rain since
9am
mm
Dir  Spd
km/h
Gust
km/h
Spd
kts
Gust
kts
20/11:30pm 25.3 28.1 20.8 76 3.0 N 7 9 4 5 1009.0 1008.8 0.0
20/11:00pm 25.4 28.1 20.6 75 3.1 N 7 9 4 5 1009.1 1008.9 0.0
20/10:30pm 25.1 28.0 20.6 76 2.9 N 6 9 3 5 1009.3 1009.1 0.0
20/10:00pm 25.3 28.3 20.8 76 3.0 NNE 6 11 3 6 1009.1 1008.9 0.0
20/09:30pm 26.1 28.5 20.9 73 3.4 ENE 9 13 5 7 1009.0 1008.8 0.0
20/09:00pm 25.9 28.3 20.9 74 3.3 NE 9 15 5 8 1008.8 1008.6 0.0
20/08:30pm 25.9 28.6 20.7 73 3.4 NE 7 13 4 7 1008.4 1008.2 0.0
20/08:00pm 25.7 28.1 20.0 71 3.7 NNE 7 11 4 6 1008.1 1007.9 0.0
20/07:30pm 26.3 28.4 20.2 69 4.0 NE 9 13 5 7 1007.9 1007.7 0.0
20/07:00pm 26.6 28.7 20.2 68 4.2 NE 9 15 5 8 1007.7 1007.5 0.0
20/06:30pm 27.4 29.5 20.2 65 4.7 NE 9 17 5 9 1007.4 1007.2 0.0
20/06:00pm 28.8 31.0 20.3 60 5.6 NE 9 17 5 9 1007.0 1006.8 0.0
20/05:30pm 29.3 30.9 20.7 59 5.7 NE 13 20 7 11 1006.4 1006.2 0.0
20/05:00pm 30.0 31.8 20.3 56 6.4 NNE 11 19 6 10 1006.4 1006.2 0.0
20/04:30pm 30.4 32.2 21.2 58 6.2 NE 13 22 7 12 1006.2 1006.0 0.0
20/04:00pm 30.2 31.8 20.7 56 6.3 NE 13 20 7 11 1006.3 1006.1 0.0
20/03:30pm 31.2 33.7 22.5 60 5.9 NE 13 24 7 13 1006.7 1006.5 0.0
20/03:00pm 31.3 33.7 22.3 58 6.1 NE 13 24 7 13 1007.1 1006.9 0.0
20/02:30pm 30.9 33.6 22.2 59 5.9 NE 11 22 6 12 1007.5 1007.3 0.0
20/02:00pm 30.7 32.9 21.8 59 6.0 ENE 13 20 7 11 1007.9 1007.7 0.0
20/01:30pm 30.9 32.6 21.7 58 6.2 ENE 15 22 8 12 1008.3 1008.1 0.0
20/01:00pm 31.9 34.3 22.3 56 6.6 NE 13 20 7 11 1008.7 1008.5 0.0
20/12:30pm 31.5 34.0 21.7 56 6.6 NE 11 20 6 11 1009.0 1008.8 0.0
20/12:00pm 30.8 33.1 22.1 59 5.9 ENE 13 19 7 10 1009.3 1009.1 0.0
20/11:30am 30.5 32.3 20.4 54 6.7 ENE 11 19 6 10 1009.4 1009.2 0.0
20/11:00am 29.9 31.9 20.7 57 6.1 E 11 17 6 9 1009.6 1009.4 0.0
20/10:30am 29.5 31.3 20.4 58 6.0 E 11 17 6 9 1009.9 1009.7 0.0
20/10:00am 29.9 32.7 21.6 61 5.6 ESE 9 17 5 9 1010.2 1010.0 0.0
20/09:30am 29.5 32.6 21.4 61 5.4 NNW 7 11 4 6 1010.3 1010.1 0.0
20/09:00am 29.4 33.3 22.6 67 4.6 WSW 6 11 3 6 1010.2 1010.0 0.0
20/08:30am 28.0 32.1 23.2 75 3.3 WSW 7 9 4 5 1010.0 1009.8 0.0
20/08:00am 27.3 30.7 22.7 76 3.1 WSW 9 13 5 7 1009.9 1009.7 0.0
20/07:30am 26.6 31.1 23.9 85 1.9 SW 7 11 4 6 1009.8 1009.6 0.0
20/07:00am 25.1 29.2 23.3 90 1.2 WSW 7 9 4 5 1009.5 1009.3 0.0
20/06:30am 24.4 28.8 23.4 94 0.7 W 6 7 3 4 1009.2 1009.0 0.0
20/06:00am 23.2 27.1 22.9 98 0.2 SW 7 9 4 5 1009.1 1008.9 0.0
20/05:30am 22.8 26.0 22.3 97 0.3 SW 9 9 5 5 1008.4 1008.2 0.0
20/05:00am 23.4 27.0 23.1 98 0.2 WSW 9 11 5 6 1007.9 1007.7 0.0
20/04:30am 23.4 26.7 22.6 95 0.5 WSW 9 9 5 5 1007.7 1007.5 0.0
20/04:00am 23.8 27.5 22.6 93 0.8 WSW 7 11 4 6 1007.6 1007.4 0.0
20/03:30am 23.6 26.8 21.7 89 1.3 SW 7 11 4 6 1007.8 1007.6 0.0
20/03:00am 24.8 28.1 21.9 84 1.9 NW 7 11 4 6 1007.6 1007.4 0.0
20/02:30am 24.7 27.5 21.6 83 2.1 NNW 9 11 5 6 1007.9 1007.7 0.0
20/02:00am 25.1 28.4 21.8 82 2.2 W 7 9 4 5 1008.1 1007.9 0.0
20/01:30am 25.7 28.5 21.6 78 2.7 NNW 9 13 5 7 1008.3 1008.1 0.0
20/01:00am 26.1 28.8 22.2 79 2.6 N 11 20 6 11 1008.1 1007.9 0.0
20/12:30am 26.3 29.6 23.2 83 2.1 N 11 19 6 10 1008.7 1008.5 0.0
20/12:00am 26.2 30.1 22.9 82 2.2 NNW 7 13 4 7 1008.9 1008.7 0.0
 
Date/Time
EST
Temp
°C
App
Temp
°C
Dew
Point
°C
Rel
Hum
%
Delta-T
°C
Wind Press
QNH
hPa
Press
MSL
hPa
Rain since
9am
mm
Dir  Spd
km/h
Gust
km/h
Spd
kts
Gust
kts
19/11:30pm 26.4 29.8 22.7 80 2.5 N 9 17 5 9 1009.1 1008.9 0.0
19/11:00pm 26.5 29.8 22.6 79 2.6 N 9 17 5 9 1009.0 1008.8 0.0
19/10:30pm 26.5 29.6 22.8 80 2.5 N 11 17 6 9 1009.1 1008.9 0.0
19/10:00pm 26.6 30.1 22.9 80 2.5 N 9 15 5 8 1009.1 1008.9 0.0
19/09:30pm 26.8 30.0 23.1 80 2.5 N 11 19 6 10 1008.7 1008.5 0.0
19/09:00pm 27.0 30.1 22.8 78 2.9 N 11 20 6 11 1008.3 1008.1 0.0
19/08:30pm 26.9 30.2 23.2 80 2.5 N 11 17 6 9 1008.2 1008.0 0.0
19/08:00pm 26.9 30.3 22.7 78 2.9 N 9 15 5 8 1008.0 1007.8 0.0
19/07:30pm 27.0 30.2 22.4 76 3.1 N 9 15 5 8 1007.7 1007.5 0.0
19/07:00pm 27.4 30.5 22.1 73 3.6 N 9 17 5 9 1007.4 1007.2 0.0
19/06:30pm 28.0 30.3 22.0 70 4.0 NNE 13 19 7 10 1007.1 1006.9 0.0
19/06:00pm 28.9 31.1 21.9 66 4.7 NNE 13 20 7 11 1007.0 1006.8 0.0
19/05:30pm 29.7 32.1 22.9 67 4.7 NNE 15 20 8 11 1006.8 1006.6 0.0
19/05:00pm 30.5 33.9 23.4 66 4.9 NNE 11 19 6 10 1006.5 1006.3 0.0
19/04:30pm 31.1 32.4 20.1 52 7.3 NNE 13 20 7 11 1006.6 1006.4 0.0
19/04:00pm 31.6 33.1 20.5 51 7.4 NNE 13 24 7 13 1006.4 1006.2 0.0
19/03:30pm 32.1 34.1 20.7 51 7.6 N 11 17 6 9 1006.7 1006.5 0.0
19/03:00pm 32.2 33.8 20.8 51 7.6 N 13 24 7 13 1006.9 1006.7 0.0
19/02:30pm 32.0 32.5 19.3 47 8.3 N 15 24 8 13 1007.3 1007.1 0.0
19/02:00pm 32.5 33.2 19.7 46 8.5 N 15 20 8 11 1007.8 1007.6 0.0
19/01:30pm 32.6 35.9 23.8 59 6.1 NNE 13 22 7 12 1008.5 1008.3 0.0
19/01:00pm 32.7 35.4 22.2 54 7.2 N 11 17 6 9 1009.0 1008.8 0.0
19/12:30pm 32.1 34.7 23.3 59 6.1 NNE 15 20 8 11 1009.4 1009.2 0.0
19/12:00pm 32.3 35.2 23.8 61 5.9 NNE 15 24 8 13 1009.8 1009.6 0.0
19/11:30am 32.4 36.2 24.7 64 5.4 NNE 13 22 7 12 1010.0 1009.8 0.0
19/11:00am 31.7 35.0 23.2 60 5.9 NNE 11 17 6 9 1010.3 1010.1 0.0
19/10:30am 31.2 35.0 24.1 66 5.0 NNE 11 20 6 11 1010.6 1010.4 0.0
19/10:00am 30.8 34.3 23.5 65 5.1 NNE 11 19 6 10 1010.8 1010.6 0.0
19/09:30am 30.2 34.4 23.4 67 4.7 N 7 11 4 6 1011.3 1011.0 0.0
19/09:00am 28.8 31.9 22.8 70 4.1 NNW 11 15 6 8 1011.4 1011.1 0.0
19/08:30am 27.7 31.5 23.5 78 2.9 WNW 9 15 5 8 1011.3 1011.0 0.0
19/08:00am 27.4 32.0 24.7 85 1.9 WNW 9 13 5 7 1011.7 1011.4 0.0
19/07:30am 26.0 29.9 24.2 90 1.2 WSW 11 15 6 8 1011.7 1011.4 0.0
19/07:00am 24.9 28.7 24.0 95 0.6 SW 11 17 6 9 1011.4 1011.1 0.0
19/06:30am 24.1 27.7 23.8 98 0.2 WSW 11 15 6 8 1011.2 1010.9 0.0
19/06:00am 23.6 27.1 23.6 100 0.0 SW 11 15 6 8 1011.0 1010.7 0.0
19/05:30am 23.5 27.2 23.3 99 0.1 WSW 9 13 5 7 1010.5 1010.3 0.0
19/05:00am 23.5 27.2 23.3 99 0.1 WSW 9 13 5 7 1010.2 1010.0 0.0
19/04:30am 23.8 28.1 23.6 99 0.1 W 7 11 4 6 1010.1 1009.9 0.0
19/04:00am 23.6 27.4 23.4 99 0.1 WSW 9 11 5 6 1009.9 1009.7 0.0
19/03:30am 23.7 27.7 23.7 100 0.0 WSW 9 15 5 8 1009.8 1009.6 0.0
19/03:00am 23.7 27.5 23.5 99 0.1 WSW 9 13 5 7 1009.9 1009.7 0.0
19/02:30am 24.0 28.0 23.7 98 0.2 WSW 9 11 5 6 1010.1 1009.9 0.0
19/02:00am 24.2 28.2 23.7 97 0.3 WSW 9 11 5 6 1010.2 1010.0 0.0
19/01:30am 24.5 28.8 23.6 95 0.6 WSW 7 11 4 6 1010.4 1010.2 0.0
19/01:00am 25.8 31.0 24.2 91 1.1 NNE 4 7 2 4 1010.7 1010.5 0.0
19/12:30am 25.5 30.0 23.9 91 1.1 NE 7 13 4 7 1011.1 1010.8 0.0
19/12:00am 25.8 30.3 24.0 90 1.2 NE 7 13 4 7 1011.5 1011.2 0.0
 
Date/Time
EST
Temp
°C
App
Temp
°C
Dew
Point
°C
Rel
Hum
%
Delta-T
°C
Wind Press
QNH
hPa
Press
MSL
hPa
Rain since
9am
mm
Dir  Spd
km/h
Gust
km/h
Spd
kts
Gust
kts
18/11:30pm 26.1 30.5 23.8 87 1.6 NE 7 11 4 6 1011.8 1011.5 0.0
18/11:00pm 26.1 30.7 24.1 89 1.4 NNE 7 11 4 6 1012.0 1011.7 0.0
18/10:30pm 26.0 30.7 24.0 89 1.4 NE 6 9 3 5 1012.1 1011.8 0.0
18/10:00pm 25.9 30.3 23.8 88 1.4 NE 7 11 4 6 1012.1 1011.8 0.0
18/09:30pm 26.1 30.6 24.0 88 1.4 NE 7 13 4 7 1011.9 1011.6 0.0
18/09:00pm 26.1 30.4 23.6 86 1.7 NE 7 11 4 6 1011.7 1011.4 0.0
18/08:30pm 26.6 30.7 23.9 85 1.9 NE 9 13 5 7 1011.5 1011.2 0.0
18/08:00pm 26.4 30.5 23.3 83 2.1 ENE 7 13 4 7 1011.4 1011.1 0.0
18/07:30pm 27.1 29.9 23.6 81 2.4 E 15 20 8 11 1011.0 1010.7 0.0
18/07:00pm 27.0 29.6 23.3 80 2.5 ENE 15 20 8 11 1010.8 1010.6 0.0

Other Formats:

Comma delimited format used in spreadsheet applications
http://www.bom.gov.au/fwo/IDQ60801/IDQ60801.94367.axf

JavaScript Object Notation format (JSON) in row-major order
http://www.bom.gov.au/fwo/IDQ60801/IDQ60801.94367.json